createdAt,value
2022-12-24T00:01:38.352Z,5.00
2022-12-24T00:04:07.567Z,4.40
2022-12-24T00:06:36.004Z,12.70
2022-12-24T00:09:04.787Z,7.83
2022-12-24T00:11:33.753Z,6.03
2022-12-24T00:14:01.766Z,9.10
2022-12-24T00:16:29.795Z,4.50
2022-12-24T00:18:59.790Z,5.70
2022-12-24T00:21:28.359Z,6.40
2022-12-24T00:23:56.545Z,13.93
2022-12-24T00:26:25.097Z,6.33
2022-12-24T00:28:53.450Z,10.30
2022-12-24T00:31:21.869Z,12.43
2022-12-24T00:33:51.395Z,4.17
2022-12-24T00:36:22.032Z,14.43
2022-12-24T00:38:50.373Z,5.87
2022-12-24T00:41:29.638Z,6.57
2022-12-24T00:43:59.777Z,7.40
2022-12-24T00:46:30.217Z,5.63
2022-12-24T00:48:58.708Z,7.37
2022-12-24T00:51:29.129Z,6.63
2022-12-24T00:53:57.829Z,5.20
2022-12-24T00:56:26.182Z,7.60
2022-12-24T00:58:55.292Z,7.40
2022-12-24T01:01:23.805Z,18.80
2022-12-24T01:03:52.350Z,8.43
2022-12-24T01:06:22.468Z,12.03
2022-12-24T01:08:53.229Z,9.77
2022-12-24T01:11:21.399Z,10.77
2022-12-24T01:13:50.244Z,5.30
2022-12-24T01:16:21.056Z,10.80
2022-12-24T01:18:49.921Z,10.00
2022-12-24T01:21:18.703Z,4.97
2022-12-24T01:23:47.407Z,8.03
2022-12-24T01:26:17.008Z,4.10
2022-12-24T01:28:45.714Z,7.80
2022-12-24T01:31:15.411Z,8.57
2022-12-24T01:33:43.589Z,8.93
2022-12-24T01:36:12.808Z,14.73
2022-12-24T01:38:41.526Z,6.60
2022-12-24T01:41:36.206Z,14.53
2022-12-24T01:44:33.234Z,5.10
2022-12-24T01:47:10.548Z,4.40
2022-12-24T01:49:40.738Z,3.50
2022-12-24T01:52:12.719Z,9.30
2022-12-24T01:54:44.301Z,4.27
2022-12-24T01:57:18.413Z,7.13
2022-12-24T01:59:50.863Z,4.27
2022-12-24T02:02:20.794Z,9.27
2022-12-24T02:04:56.041Z,4.60
2022-12-24T02:07:25.430Z,5.67
2022-12-24T02:09:57.375Z,15.53
2022-12-24T02:12:29.195Z,3.70
2022-12-24T02:14:57.902Z,5.00
2022-12-24T02:17:33.352Z,6.60
2022-12-24T02:20:52.518Z,9.33
2022-12-24T02:23:49.637Z,6.53
2022-12-24T02:26:35.711Z,7.70
2022-12-24T02:29:26.969Z,14.67
2022-12-24T02:32:02.784Z,9.43
2022-12-24T02:34:39.251Z,8.80
2022-12-24T02:37:15.907Z,10.67
2022-12-24T02:39:51.963Z,11.77
2022-12-24T02:42:25.442Z,5.20
2022-12-24T02:44:59.723Z,9.70
2022-12-24T02:47:33.661Z,8.67
2022-12-24T02:50:04.125Z,8.20
2022-12-24T02:52:34.511Z,9.53
2022-12-24T02:55:06.321Z,10.60
2022-12-24T02:57:48.548Z,11.10
2022-12-24T03:00:20.076Z,9.60
2022-12-24T03:03:01.538Z,9.10
2022-12-24T03:05:36.813Z,12.20
2022-12-24T03:08:12.412Z,8.03
2022-12-24T03:10:48.399Z,12.57
2022-12-24T03:13:18.693Z,13.50
2022-12-24T03:15:48.648Z,11.43
2022-12-24T03:18:21.366Z,13.30
2022-12-24T03:20:58.407Z,8.17
2022-12-24T03:23:26.521Z,5.40
2022-12-24T03:25:54.859Z,16.07
2022-12-24T03:28:28.608Z,9.63
2022-12-24T03:30:57.295Z,10.50
2022-12-24T03:33:27.076Z,8.77
2022-12-24T03:35:55.489Z,9.07
2022-12-24T03:38:24.112Z,16.53
2022-12-24T03:40:52.365Z,8.53
2022-12-24T03:43:20.940Z,13.50
2022-12-24T03:45:49.334Z,7.30
2022-12-24T03:48:17.813Z,11.57
2022-12-24T03:50:47.357Z,9.73
2022-12-24T03:53:15.783Z,8.43
2022-12-24T03:55:43.783Z,13.73
2022-12-24T03:58:12.177Z,6.30
2022-12-24T04:00:40.409Z,7.83
2022-12-24T04:03:09.117Z,6.93
2022-12-24T04:05:37.230Z,7.03
2022-12-24T04:08:06.867Z,8.90
2022-12-24T04:10:34.638Z,10.67
2022-12-24T04:13:03.308Z,10.40
2022-12-24T04:15:31.027Z,13.87
2022-12-24T04:17:59.594Z,6.23
2022-12-24T04:20:29.808Z,10.90
2022-12-24T04:22:57.880Z,10.87
2022-12-24T04:25:27.034Z,4.60
2022-12-24T04:27:54.998Z,11.07
2022-12-24T04:30:23.205Z,8.63
2022-12-24T04:32:52.574Z,8.83
2022-12-24T04:35:20.416Z,9.83
2022-12-24T04:37:48.226Z,14.67
2022-12-24T04:40:16.019Z,12.10
2022-12-24T04:42:45.420Z,15.70
2022-12-24T04:45:13.500Z,9.80
2022-12-24T04:47:41.706Z,8.73
2022-12-24T04:50:10.364Z,12.50
2022-12-24T04:52:42.445Z,6.73
2022-12-24T04:55:11.338Z,11.50
2022-12-24T04:57:39.773Z,12.07
2022-12-24T05:00:10.780Z,10.10
2022-12-24T05:02:39.607Z,14.30
2022-12-24T05:05:08.316Z,19.17
2022-12-24T05:07:37.273Z,6.27
2022-12-24T05:10:06.584Z,11.33
2022-12-24T05:12:34.828Z,8.30
2022-12-24T05:15:04.632Z,5.60
2022-12-24T05:17:34.265Z,13.97
2022-12-24T05:20:02.239Z,13.73
2022-12-24T05:22:48.098Z,13.97
2022-12-24T05:25:33.484Z,11.20
2022-12-24T05:28:01.295Z,12.27
2022-12-24T05:30:29.427Z,12.93
2022-12-24T05:32:59.059Z,12.80
2022-12-24T05:35:27.325Z,7.53
2022-12-24T05:37:59.203Z,13.80
2022-12-24T05:40:27.180Z,14.97
2022-12-24T05:42:55.475Z,7.03
2022-12-24T05:45:23.432Z,11.80
2022-12-24T05:47:51.905Z,15.20
2022-12-24T05:50:21.353Z,7.40
2022-12-24T05:52:49.423Z,16.93
2022-12-24T05:55:17.567Z,7.60
2022-12-24T05:57:45.367Z,10.13
2022-12-24T06:00:14.811Z,11.30
2022-12-24T06:02:43.114Z,11.87
2022-12-24T06:05:11.398Z,15.13
2022-12-24T06:07:41.394Z,5.43
2022-12-24T06:10:10.801Z,12.47
2022-12-24T06:12:39.877Z,6.57
2022-12-24T06:15:09.079Z,5.73
2022-12-24T06:17:37.513Z,7.80
2022-12-24T06:20:06.119Z,18.50
2022-12-24T06:22:34.909Z,12.90
2022-12-24T06:25:04.275Z,9.27
2022-12-24T06:27:32.440Z,12.43
2022-12-24T06:30:00.214Z,9.37
2022-12-24T06:32:28.428Z,6.37
2022-12-24T06:34:56.300Z,11.70
2022-12-24T06:37:24.176Z,2.80
2022-12-24T06:39:52.187Z,15.73
2022-12-24T06:42:21.490Z,9.70
2022-12-24T06:44:49.397Z,8.00
2022-12-24T06:47:17.885Z,12.40
2022-12-24T06:49:45.976Z,12.90
2022-12-24T06:52:14.149Z,9.77
2022-12-24T06:54:41.984Z,16.70
2022-12-24T06:57:09.914Z,20.50
2022-12-24T06:59:39.091Z,12.70
2022-12-24T07:02:07.202Z,17.87
2022-12-24T07:04:35.287Z,12.20
2022-12-24T07:07:03.752Z,8.70
2022-12-24T07:09:32.920Z,12.40
2022-12-24T07:12:01.037Z,11.87
2022-12-24T07:14:29.028Z,16.47
2022-12-24T07:16:59.490Z,7.30
2022-12-24T07:19:27.463Z,8.63
2022-12-24T07:21:55.236Z,12.70
2022-12-24T07:24:23.258Z,19.30
2022-12-24T07:26:51.126Z,15.63
2022-12-24T07:29:19.479Z,16.67
2022-12-24T07:31:47.631Z,11.13
2022-12-24T07:34:17.963Z,15.03
2022-12-24T07:36:46.122Z,11.37
2022-12-24T07:39:14.331Z,17.00
2022-12-24T07:41:42.123Z,10.73
2022-12-24T07:44:12.708Z,18.07
2022-12-24T07:46:42.656Z,12.60
2022-12-24T07:49:11.196Z,6.33
2022-12-24T07:51:40.616Z,10.23
2022-12-24T07:54:09.111Z,14.90
2022-12-24T07:56:37.166Z,15.93
2022-12-24T07:59:05.057Z,12.27
2022-12-24T08:01:33.163Z,9.37
2022-12-24T08:04:01.317Z,10.27
2022-12-24T08:06:29.124Z,26.13
2022-12-24T08:09:03.464Z,17.07
2022-12-24T08:11:31.567Z,14.13
2022-12-24T08:13:59.894Z,10.17
2022-12-24T08:16:27.949Z,13.73
2022-12-24T08:18:56.175Z,14.53
2022-12-24T08:21:26.507Z,14.70
2022-12-24T08:23:54.701Z,4.87
2022-12-24T08:26:23.978Z,17.57
2022-12-24T08:28:52.099Z,11.87
2022-12-24T08:31:19.988Z,19.83
2022-12-24T08:33:48.617Z,10.07
2022-12-24T08:36:16.759Z,22.10
2022-12-24T08:38:45.871Z,8.80
2022-12-24T08:41:14.280Z,5.23
2022-12-24T08:43:44.047Z,8.53
2022-12-24T08:46:12.358Z,7.00
2022-12-24T08:48:40.703Z,13.00
2022-12-24T08:51:09.702Z,13.47
2022-12-24T08:53:39.053Z,10.60
2022-12-24T08:56:09.885Z,32.90
2022-12-24T08:58:39.074Z,20.20
2022-12-24T09:01:14.395Z,8.63
2022-12-24T09:03:43.280Z,11.57
2022-12-24T09:06:11.671Z,19.10
2022-12-24T09:08:40.156Z,14.07
2022-12-24T09:11:10.177Z,12.00
2022-12-24T09:13:38.520Z,7.80
2022-12-24T09:16:08.342Z,7.77
2022-12-24T09:18:38.145Z,10.37
2022-12-24T09:21:08.662Z,25.00
2022-12-24T09:24:04.879Z,14.93
2022-12-24T09:26:33.190Z,16.80
2022-12-24T09:29:01.803Z,14.73
2022-12-24T09:31:30.365Z,15.43
2022-12-24T09:33:59.570Z,21.20
2022-12-24T09:36:27.749Z,17.70
2022-12-24T09:38:55.945Z,10.83
2022-12-24T09:41:38.040Z,16.17
2022-12-24T09:44:20.653Z,12.70
2022-12-24T09:46:51.277Z,14.03
2022-12-24T09:49:24.163Z,14.67
2022-12-24T09:51:56.810Z,8.20
2022-12-24T09:54:28.693Z,15.03
2022-12-24T09:57:02.709Z,22.57
2022-12-24T09:59:47.786Z,16.47
2022-12-24T10:02:19.964Z,11.70
2022-12-24T10:04:49.972Z,18.33
2022-12-24T10:07:33.098Z,11.70
2022-12-24T10:10:08.335Z,15.20
2022-12-24T10:12:49.354Z,9.40
2022-12-24T10:15:27.715Z,15.30
2022-12-24T10:18:11.048Z,14.30
2022-12-24T10:20:48.783Z,7.53
2022-12-24T10:23:25.016Z,16.63
2022-12-24T10:26:04.519Z,20.23
2022-12-24T10:28:40.242Z,13.43
2022-12-24T10:31:09.625Z,17.67
2022-12-24T10:33:42.935Z,18.60
2022-12-24T10:36:16.882Z,10.00
2022-12-24T10:38:45.606Z,17.50
2022-12-24T10:41:14.927Z,10.30
2022-12-24T10:43:46.591Z,15.70
2022-12-24T10:46:20.842Z,28.40
2022-12-24T10:48:56.335Z,22.13
2022-12-24T10:51:35.173Z,18.17
2022-12-24T10:54:08.645Z,15.37
2022-12-24T10:56:42.685Z,22.60
2022-12-24T10:59:25.035Z,28.73
2022-12-24T11:01:53.407Z,25.27
2022-12-24T11:04:23.523Z,20.17
2022-12-24T11:06:58.967Z,15.63
2022-12-24T11:09:32.639Z,16.13
2022-12-24T11:12:08.652Z,18.80
2022-12-24T11:14:40.934Z,22.70
2022-12-24T11:17:20.601Z,22.37
2022-12-24T11:19:50.731Z,27.03
2022-12-24T11:22:25.257Z,22.50
2022-12-24T11:25:02.011Z,12.47
2022-12-24T11:27:34.003Z,14.70
2022-12-24T11:30:28.238Z,19.57
2022-12-24T11:33:21.459Z,13.03
2022-12-24T11:35:53.773Z,22.33
2022-12-24T11:38:26.246Z,26.07
2022-12-24T11:41:02.114Z,18.03
2022-12-24T11:43:47.466Z,13.20
2022-12-24T11:46:22.067Z,16.90
2022-12-24T11:49:08.029Z,17.97
2022-12-24T11:51:37.561Z,17.30
2022-12-24T11:54:16.165Z,15.17
2022-12-24T11:56:49.214Z,16.70
2022-12-24T11:59:25.133Z,13.33
2022-12-24T12:01:59.584Z,19.87
2022-12-24T12:04:31.266Z,20.70
2022-12-24T12:07:02.964Z,16.60
2022-12-24T12:09:35.854Z,10.10
2022-12-24T12:12:12.161Z,14.20
2022-12-24T12:14:48.120Z,9.83
2022-12-24T12:17:29.531Z,12.67
2022-12-24T12:20:04.305Z,20.63
2022-12-24T12:22:40.478Z,20.40
2022-12-24T12:25:23.277Z,20.33
2022-12-24T12:27:55.793Z,16.27
2022-12-24T12:30:24.783Z,14.00
2022-12-24T12:33:00.862Z,22.67
2022-12-24T12:35:33.003Z,14.63
2022-12-24T12:38:04.312Z,25.97
2022-12-24T12:40:58.480Z,24.27
2022-12-24T12:43:44.761Z,23.53
2022-12-24T12:46:20.605Z,18.30
2022-12-24T12:49:03.260Z,14.50
2022-12-24T12:51:39.012Z,16.10
2022-12-24T12:54:25.405Z,19.27
2022-12-24T12:56:58.444Z,18.87
2022-12-24T12:59:34.181Z,14.20
2022-12-24T13:02:14.400Z,18.80
2022-12-24T13:05:20.213Z,23.00
2022-12-24T13:08:07.193Z,25.50
2022-12-24T13:11:06.955Z,14.03
2022-12-24T13:13:49.141Z,15.50
2022-12-24T13:16:36.778Z,20.10
2022-12-24T13:19:25.314Z,22.53
2022-12-24T13:21:56.809Z,11.47
2022-12-24T13:24:28.297Z,11.93
2022-12-24T13:27:07.344Z,14.87
2022-12-24T13:29:52.662Z,22.97
2022-12-24T13:32:49.740Z,13.23
2022-12-24T13:35:38.295Z,19.00
2022-12-24T13:38:45.747Z,16.03
2022-12-24T13:41:42.088Z,15.53
2022-12-24T13:44:19.675Z,11.90
2022-12-24T13:46:56.608Z,21.03
2022-12-24T13:49:30.633Z,12.73
2022-12-24T13:52:19.964Z,11.50
2022-12-24T13:55:01.492Z,11.93
2022-12-24T13:57:37.347Z,13.03
2022-12-24T14:00:23.479Z,7.90
2022-12-24T14:02:58.735Z,15.17
2022-12-24T14:05:35.490Z,10.67
2022-12-24T14:08:07.210Z,14.33
2022-12-24T14:10:41.303Z,16.30
2022-12-24T14:14:08.289Z,12.03
2022-12-24T14:16:46.316Z,16.80
2022-12-24T14:19:20.249Z,12.40
2022-12-24T14:21:55.899Z,22.17
2022-12-24T14:24:26.770Z,14.90
2022-12-24T14:26:58.626Z,15.20
2022-12-24T14:29:30.123Z,15.27
2022-12-24T14:31:59.882Z,13.17
2022-12-24T14:34:29.505Z,12.80
2022-12-24T14:36:59.199Z,10.50
2022-12-24T14:39:33.205Z,17.20
2022-12-24T14:42:18.479Z,10.20
2022-12-24T14:44:55.874Z,19.57
2022-12-24T14:47:32.236Z,11.27
2022-12-24T14:50:17.566Z,20.03
2022-12-24T14:53:07.316Z,17.23
2022-12-24T14:55:42.867Z,14.40
2022-12-24T14:58:24.201Z,15.40
2022-12-24T15:00:54.004Z,19.40
2022-12-24T15:03:25.273Z,17.83
2022-12-24T15:05:57.687Z,19.10
2022-12-24T15:08:31.232Z,12.80
2022-12-24T15:11:04.264Z,18.47
2022-12-24T15:13:37.347Z,27.10
2022-12-24T15:16:08.951Z,23.20
2022-12-24T15:18:40.125Z,13.43
2022-12-24T15:21:17.998Z,26.30
2022-12-24T15:23:49.408Z,10.13
2022-12-24T15:26:24.875Z,22.67
2022-12-24T15:29:01.965Z,20.20
2022-12-24T15:31:31.570Z,17.23
2022-12-24T15:34:00.803Z,20.77
2022-12-24T15:36:32.788Z,23.43
2022-12-24T15:39:03.564Z,20.33
2022-12-24T15:41:59.369Z,27.73
2022-12-24T15:44:28.508Z,30.07
2022-12-24T15:47:00.183Z,41.73
2022-12-24T15:49:29.276Z,44.70
2022-12-24T15:52:06.728Z,22.10
2022-12-24T15:54:36.185Z,33.47
2022-12-24T15:57:15.342Z,30.40
2022-12-24T15:59:44.096Z,33.27
2022-12-24T16:02:37.460Z,64.17
2022-12-24T16:05:42.274Z,74.03
2022-12-24T16:08:30.558Z,31.50
2022-12-24T16:11:16.207Z,31.97
2022-12-24T16:13:54.206Z,29.47
2022-12-24T16:16:31.694Z,23.47
2022-12-24T16:19:02.293Z,18.60
2022-12-24T16:21:32.758Z,19.63
2022-12-24T16:24:07.252Z,26.90
2022-12-24T16:26:35.869Z,24.23
2022-12-24T16:29:04.641Z,26.63
2022-12-24T16:31:35.624Z,22.03
2022-12-24T16:34:04.832Z,24.70
2022-12-24T16:36:33.466Z,25.73
2022-12-24T16:39:20.730Z,26.67
2022-12-24T16:42:06.171Z,19.20
2022-12-24T16:44:34.451Z,26.20
2022-12-24T16:47:02.604Z,26.57
2022-12-24T16:49:30.988Z,25.30
2022-12-24T16:51:59.045Z,25.13
2022-12-24T16:54:30.392Z,18.70
2022-12-24T16:57:21.429Z,30.40
2022-12-24T16:59:49.893Z,17.17
2022-12-24T17:02:20.237Z,21.90
2022-12-24T17:04:49.886Z,21.47
2022-12-24T17:07:20.547Z,23.37
2022-12-24T17:09:50.258Z,31.17
2022-12-24T17:12:18.920Z,22.73
2022-12-24T17:14:47.303Z,24.07
2022-12-24T17:17:22.179Z,27.50
2022-12-24T17:19:51.229Z,31.07
2022-12-24T17:22:19.921Z,19.37
2022-12-24T17:24:49.871Z,27.77
2022-12-24T17:27:18.038Z,29.40
2022-12-24T17:29:46.254Z,22.70
2022-12-24T17:32:14.388Z,18.00
2022-12-24T17:34:42.222Z,20.40
2022-12-24T17:37:10.247Z,26.50
2022-12-24T17:39:38.798Z,26.93
2022-12-24T17:42:08.493Z,21.60
2022-12-24T17:44:37.000Z,37.70
2022-12-24T17:47:05.474Z,21.37
2022-12-24T17:49:33.534Z,33.90
2022-12-24T17:52:01.525Z,37.13
2022-12-24T17:54:30.081Z,40.23
2022-12-24T17:56:59.623Z,29.77
2022-12-24T17:59:29.539Z,28.63
2022-12-24T18:01:57.637Z,39.10
2022-12-24T18:04:26.215Z,27.23
2022-12-24T18:07:01.682Z,21.57
2022-12-24T18:09:31.028Z,28.70
2022-12-24T18:11:58.877Z,25.27
2022-12-24T18:14:28.164Z,27.83
2022-12-24T18:16:56.217Z,25.70
2022-12-24T18:19:24.214Z,30.37
2022-12-24T18:21:52.774Z,33.13
2022-12-24T18:24:21.313Z,31.87
2022-12-24T18:26:49.530Z,21.30
2022-12-24T18:29:17.915Z,37.93
2022-12-24T18:31:47.736Z,33.73
2022-12-24T18:34:16.618Z,30.77
2022-12-24T18:36:47.188Z,31.33
2022-12-24T18:39:19.617Z,28.70
2022-12-24T18:41:47.785Z,24.93
2022-12-24T18:44:22.522Z,39.83
2022-12-24T18:46:54.154Z,33.93
2022-12-24T18:49:22.823Z,26.50
2022-12-24T18:51:50.940Z,30.57
2022-12-24T18:54:19.720Z,23.40
2022-12-24T18:56:47.876Z,23.27
2022-12-24T18:59:16.378Z,21.67
2022-12-24T19:01:44.664Z,27.23
2022-12-24T19:04:15.345Z,28.00
2022-12-24T19:06:50.722Z,27.13
2022-12-24T19:09:21.446Z,24.27
2022-12-24T19:11:49.741Z,26.10
2022-12-24T19:14:20.489Z,29.90
2022-12-24T19:16:48.621Z,23.90
2022-12-24T19:19:21.735Z,25.57
2022-12-24T19:21:49.723Z,26.60
2022-12-24T19:24:17.657Z,28.13
2022-12-24T19:26:45.443Z,19.87
2022-12-24T19:29:13.524Z,35.17
2022-12-24T19:31:44.269Z,22.13
2022-12-24T19:34:12.889Z,21.53
2022-12-24T19:36:42.278Z,37.77
2022-12-24T19:39:10.413Z,19.50
2022-12-24T19:41:38.670Z,22.47
2022-12-24T19:44:07.099Z,24.23
2022-12-24T19:46:38.154Z,22.40
2022-12-24T19:49:09.333Z,43.60
2022-12-24T19:51:37.779Z,24.20
2022-12-24T19:54:13.298Z,18.60
2022-12-24T19:56:44.687Z,21.00
2022-12-24T19:59:12.842Z,26.47
2022-12-24T20:01:40.912Z,41.20
2022-12-24T20:04:10.468Z,34.93
2022-12-24T20:06:39.401Z,20.70
2022-12-24T20:09:09.886Z,19.10
2022-12-24T20:11:37.899Z,24.30
2022-12-24T20:14:07.157Z,25.23
2022-12-24T20:16:35.860Z,21.07
2022-12-24T20:19:06.987Z,27.20
2022-12-24T20:21:35.517Z,24.70
2022-12-24T20:24:03.718Z,23.67
2022-12-24T20:26:33.115Z,20.13
2022-12-24T20:29:05.340Z,28.90
2022-12-24T20:31:33.856Z,22.20
2022-12-24T20:34:03.413Z,32.83
2022-12-24T20:36:32.297Z,20.90
2022-12-24T20:39:00.749Z,23.73
2022-12-24T20:41:30.732Z,26.00
2022-12-24T20:44:01.357Z,25.43
2022-12-24T20:46:31.164Z,29.80
2022-12-24T20:48:59.397Z,58.20
2022-12-24T20:51:28.999Z,53.57
2022-12-24T20:53:58.365Z,26.40
2022-12-24T20:56:26.982Z,34.17
2022-12-24T20:58:55.398Z,36.43
2022-12-24T21:01:28.508Z,33.20
2022-12-24T21:03:57.960Z,43.47
2022-12-24T21:06:26.504Z,26.00
2022-12-24T21:08:55.533Z,36.03
2022-12-24T21:11:41.681Z,41.10
2022-12-24T21:14:10.377Z,30.37
2022-12-24T21:16:41.198Z,29.77
2022-12-24T21:19:11.213Z,39.43
2022-12-24T21:21:39.694Z,32.10
2022-12-24T21:24:09.834Z,37.77
2022-12-24T21:26:38.553Z,33.40
2022-12-24T21:29:08.537Z,35.67
2022-12-24T21:31:37.269Z,32.90
2022-12-24T21:34:07.238Z,26.53
2022-12-24T21:36:35.176Z,41.13
2022-12-24T21:39:03.128Z,39.67
2022-12-24T21:41:30.915Z,26.63
2022-12-24T21:44:02.369Z,24.37
2022-12-24T21:46:30.498Z,31.47
2022-12-24T21:49:28.042Z,34.37
2022-12-24T21:51:57.433Z,25.60
2022-12-24T21:54:27.554Z,25.30
2022-12-24T21:57:14.384Z,29.07
2022-12-24T21:59:42.963Z,25.33
2022-12-24T22:02:13.021Z,32.20
2022-12-24T22:04:42.365Z,31.60
2022-12-24T22:07:39.249Z,30.00
2022-12-24T22:10:26.624Z,30.10
2022-12-24T22:12:55.019Z,23.33
2022-12-24T22:15:23.272Z,28.53
2022-12-24T22:17:51.314Z,39.63
2022-12-24T22:20:19.838Z,31.43
2022-12-24T22:22:49.978Z,26.93
2022-12-24T22:25:18.829Z,28.63
2022-12-24T22:27:46.929Z,27.33
2022-12-24T22:30:15.158Z,27.43
2022-12-24T22:32:43.077Z,28.63
2022-12-24T22:35:12.149Z,28.53
2022-12-24T22:37:40.240Z,30.10
2022-12-24T22:40:12.197Z,27.07
2022-12-24T22:42:41.010Z,32.87
2022-12-24T22:45:14.671Z,23.57
2022-12-24T22:47:46.635Z,32.13
2022-12-24T22:50:15.005Z,34.80
2022-12-24T22:52:43.273Z,36.93
2022-12-24T22:55:12.533Z,22.53
2022-12-24T22:57:40.476Z,19.17
2022-12-24T23:00:14.230Z,28.27
2022-12-24T23:02:42.512Z,27.80
2022-12-24T23:05:15.018Z,25.50
2022-12-24T23:07:43.109Z,29.87
2022-12-24T23:10:12.396Z,31.13
2022-12-24T23:12:57.987Z,33.30
2022-12-24T23:15:26.343Z,20.53
2022-12-24T23:17:54.500Z,22.17
2022-12-24T23:20:22.947Z,30.73
2022-12-24T23:22:51.107Z,27.13
2022-12-24T23:25:21.045Z,27.57
2022-12-24T23:27:48.974Z,27.13
2022-12-24T23:30:18.096Z,32.93
2022-12-24T23:32:46.080Z,32.13
2022-12-24T23:35:14.408Z,24.47
2022-12-24T23:37:42.429Z,26.73
2022-12-24T23:40:11.836Z,19.53
2022-12-24T23:42:41.352Z,30.40
2022-12-24T23:45:10.858Z,24.93
2022-12-24T23:47:38.837Z,26.33
2022-12-24T23:50:08.642Z,20.57
2022-12-24T23:52:36.666Z,21.40
2022-12-24T23:55:07.357Z,21.60
2022-12-24T23:57:36.044Z,30.23
